Time;durP1;ratioP1;P1;durP2;ratioP2;P2;SDS_P1;SDS_P2;PMS_P1;PMS_P2;Temp;Humidity;BMP_temperature;BMP_pressure;BME280_temperature;BME280_humidity;BME280_pressure;Samples;Min_cycle;Max_cycle;Signal;HPM_P1;HPM_P2
2022/11/24 00:01:03;;;;;;;12.50;5.30;;;;;;;-141.28;100.00;50993.69;5112757;28;20492;-75
2022/11/24 00:03:31;;;;;;;13.03;5.47;;;;;;;-141.28;100.00;50978.00;5112875;28;20892;-75
2022/11/24 00:06:03;;;;;;;13.33;5.23;;;;;;;-141.28;100.00;51052.59;5112524;28;21009;-75
2022/11/24 00:08:30;;;;;;;11.30;4.67;;;;;;;-141.28;100.00;51070.25;5113008;28;20519;-78
2022/11/24 00:11:02;;;;;;;8.80;4.10;;;;;;;-141.28;100.00;51127.19;5112707;28;20448;-75
2022/11/24 00:13:29;;;;;;;9.77;4.60;;;;;;;-141.28;100.00;51115.41;5112895;28;20490;-77
2022/11/24 00:16:04;;;;;;;14.50;4.90;;;;;;;-141.28;100.00;51135.03;5112289;28;20448;-78
2022/11/24 00:18:32;;;;;;;6.50;4.00;;;;;;;-141.28;100.00;51099.72;5112231;28;20444;-76
2022/11/24 00:20:59;;;;;;;6.63;4.07;;;;;;;-141.28;100.00;51123.28;5112967;28;20865;-76
2022/11/24 00:23:26;;;;;;;8.90;4.27;;;;;;;-141.28;100.00;51178.25;5112324;28;20473;-75
2022/11/24 00:25:53;;;;;;;9.53;4.17;;;;;;;-141.28;100.00;51066.34;5112408;28;20528;-75
2022/11/24 00:28:20;;;;;;;8.60;4.40;;;;;;;-141.28;100.00;51150.75;5106688;28;20562;-75
2022/11/24 00:30:47;;;;;;;5.30;3.87;;;;;;;-141.28;100.00;51111.50;5120026;28;20444;-72
2022/11/24 00:33:14;;;;;;;8.17;5.23;;;;;;;-141.28;100.00;51019.22;5121368;28;20433;-74
2022/11/24 00:35:42;;;;;;;10.63;5.73;;;;;;;-141.28;100.00;51123.28;5122877;28;20520;-74
2022/11/24 00:38:09;;;;;;;11.70;5.20;;;;;;;-141.28;100.00;51150.75;5120390;28;20497;-75
2022/11/24 00:40:36;;;;;;;8.37;4.57;;;;;;;-141.28;100.00;51146.81;5115096;28;20577;-76
2022/11/24 00:43:03;;;;;;;13.07;5.00;;;;;;;-141.28;100.00;51205.72;5112184;28;20501;-74
2022/11/24 00:45:30;;;;;;;9.97;4.47;;;;;;;-141.28;100.00;51248.91;5112889;28;20441;-74
2022/11/24 00:47:57;;;;;;;12.63;5.50;;;;;;;-141.28;100.00;51362.78;5111702;28;20539;-77
2022/11/24 00:50:24;;;;;;;10.60;5.07;;;;;;;-141.28;100.00;51029.03;5112331;28;20532;-74
2022/11/24 00:52:52;;;;;;;8.80;4.80;;;;;;;-141.28;100.00;51319.59;5111714;28;20460;-75
2022/11/24 00:55:18;;;;;;;8.83;4.77;;;;;;;-141.28;100.00;51227.31;5111635;28;20517;-75
2022/11/24 00:57:45;;;;;;;11.30;5.30;;;;;;;-141.28;100.00;51229.28;5111488;28;20448;-74
2022/11/24 01:00:13;;;;;;;19.67;5.47;;;;;;;-141.28;100.00;51274.44;5111653;28;20488;-73
2022/11/24 01:02:40;;;;;;;13.53;5.40;;;;;;;-141.28;100.00;51370.66;5111562;28;20524;-74
2022/11/24 01:05:07;;;;;;;7.87;4.63;;;;;;;-141.28;100.00;51372.59;5112172;28;20551;-74
2022/11/24 01:07:34;;;;;;;7.83;4.70;;;;;;;-141.28;100.00;51354.94;5111517;28;20470;-75
2022/11/24 01:10:03;;;;;;;12.77;5.40;;;;;;;-141.28;100.00;51170.38;5111801;28;20452;-76
2022/11/24 01:12:29;;;;;;;11.00;5.13;;;;;;;-141.28;100.00;51272.47;5111683;28;20891;-73
2022/11/24 01:14:56;;;;;;;9.90;5.03;;;;;;;-141.28;100.00;51276.41;5111956;28;20521;-74
2022/11/24 01:17:23;;;;;;;9.90;5.07;;;;;;;-141.28;100.00;51201.81;5107493;28;20474;-75
2022/11/24 01:19:50;;;;;;;13.87;5.30;;;;;;;-141.28;100.00;51225.34;5102773;28;20549;-74
2022/11/24 01:22:16;;;;;;;8.17;4.90;;;;;;;-141.28;100.00;51205.72;5111513;28;20464;-77
2022/11/24 01:24:44;;;;;;;13.40;5.00;;;;;;;-141.28;100.00;51219.47;5111694;28;20501;-76
2022/11/24 01:27:12;;;;;;;8.43;4.53;;;;;;;-141.28;100.00;51199.84;5111361;28;20445;-78
2022/11/24 01:29:39;;;;;;;14.47;4.97;;;;;;;-141.28;100.00;51211.63;5111335;28;20460;-76
2022/11/24 01:32:06;;;;;;;13.20;5.20;;;;;;;-141.28;100.00;51309.78;5111472;28;20464;-79
2022/11/24 01:34:33;;;;;;;10.57;4.77;;;;;;;-141.28;100.00;51272.47;5111905;28;20448;-77
2022/11/24 01:37:00;;;;;;;10.67;5.30;;;;;;;-141.28;100.00;51339.22;5111626;28;20513;-76
2022/11/24 01:39:27;;;;;;;8.40;4.70;;;;;;;-141.28;100.00;51354.94;5111506;28;20454;-75
2022/11/24 01:41:53;;;;;;;9.10;3.87;;;;;;;-141.28;100.00;51398.13;5110133;28;20501;-74
2022/11/24 01:44:24;;;;;;;10.27;4.07;;;;;;;-141.28;100.00;51413.84;5113764;28;20498;-76
2022/11/24 01:46:55;;;;;;;7.00;3.50;;;;;;;-141.28;100.00;51327.44;5102647;28;20444;-75
2022/11/24 01:49:25;;;;;;;7.67;3.63;;;;;;;-141.28;100.00;51366.72;5116929;28;20449;-74
2022/11/24 01:51:58;;;;;;;7.23;3.83;;;;;;;-141.28;100.00;51360.81;5116678;28;20509;-75
2022/11/24 01:54:29;;;;;;;7.60;3.70;;;;;;;-141.28;100.00;51354.94;5111559;28;20436;-75
2022/11/24 01:57:02;;;;;;;6.50;3.63;;;;;;;-141.28;100.00;51343.16;5111780;28;20452;-76
2022/11/24 01:59:31;;;;;;;6.37;3.40;;;;;;;-141.28;100.00;51339.22;5111640;28;20817;-77
2022/11/24 02:01:58;;;;;;;4.13;3.13;;;;;;;-141.28;100.00;51325.50;5132815;28;20436;-76
2022/11/24 02:04:32;;;;;;;6.80;3.30;;;;;;;-141.28;100.00;51292.13;5131265;28;20851;-74
2022/11/24 02:07:01;;;;;;;10.33;4.33;;;;;;;-141.28;100.00;50997.63;5137143;28;20460;-74
2022/11/24 02:09:33;;;;;;;6.00;3.23;;;;;;;-141.28;100.00;51260.69;5134495;28;20441;-75
2022/11/24 02:12:01;;;;;;;7.07;3.33;;;;;;;-141.28;100.00;51288.19;5124618;28;20509;-79
2022/11/24 02:14:30;;;;;;;7.00;3.43;;;;;;;-141.28;100.00;51217.50;5116197;28;20501;-74
2022/11/24 02:16:57;;;;;;;6.53;3.63;;;;;;;-141.28;100.00;51258.72;5115326;28;20465;-76
2022/11/24 02:19:36;;;;;;;7.07;4.30;;;;;;;-141.28;100.00;51193.94;5116082;28;20440;-75
2022/11/24 02:22:04;;;;;;;5.10;3.50;;;;;;;-141.28;100.00;51154.69;5115858;28;20491;-74
2022/11/24 02:24:40;;;;;;;5.43;3.60;;;;;;;-141.28;100.00;51072.22;5115330;28;20505;-74
2022/11/24 02:27:10;;;;;;;8.07;3.53;;;;;;;-141.28;100.00;51068.28;5114878;28;20444;-75
2022/11/24 02:29:38;;;;;;;6.30;3.90;;;;;;;-141.28;100.00;51123.28;5114478;28;20531;-76
2022/11/24 02:32:07;;;;;;;8.10;3.57;;;;;;;-141.28;100.00;51117.38;5114311;28;20962;-77
2022/11/24 02:34:34;;;;;;;9.60;4.33;;;;;;;-141.28;100.00;51123.28;5118509;28;20449;-73
2022/11/24 02:37:01;;;;;;;7.70;4.23;;;;;;;-141.28;100.00;51148.78;5120794;28;20445;-75
2022/11/24 02:39:27;;;;;;;11.57;4.63;;;;;;;-141.28;100.00;51178.25;5114365;28;20951;-75
2022/11/24 02:41:58;;;;;;;7.70;4.03;;;;;;;-141.28;100.00;51229.28;5100321;28;20484;-76
2022/11/24 02:44:30;;;;;;;8.70;4.03;;;;;;;-141.28;100.00;51184.13;5114417;28;20453;-77
2022/11/24 02:47:05;;;;;;;8.20;4.47;;;;;;;-141.28;100.00;51142.91;5114202;28;20947;-77
2022/11/24 02:49:32;;;;;;;6.17;4.20;;;;;;;-141.28;100.00;51166.47;5114019;28;20609;-75
2022/11/24 02:51:59;;;;;;;11.07;5.63;;;;;;;-141.28;100.00;51195.91;5110475;28;20450;-74
2022/11/24 02:54:26;;;;;;;10.43;5.30;;;;;;;-141.28;100.00;51170.38;5113955;28;20449;-75
2022/11/24 02:56:53;;;;;;;7.40;4.73;;;;;;;-141.28;100.00;51142.91;5113146;28;20456;-75
2022/11/24 02:59:21;;;;;;;7.23;3.87;;;;;;;-141.28;100.00;51164.50;5096539;28;20445;-75
2022/11/24 03:01:49;;;;;;;10.73;4.50;;;;;;;-141.28;100.00;51158.59;5106076;28;20494;-76
2022/11/24 03:04:16;;;;;;;13.77;6.77;;;;;;;-141.28;100.00;51127.19;5105912;28;20441;-77
2022/11/24 03:06:43;;;;;;;12.03;6.03;;;;;;;-141.28;100.00;51135.03;5113680;28;20848;-75
2022/11/24 03:09:10;;;;;;;19.50;6.60;;;;;;;-141.28;100.00;50962.28;5112603;28;20457;-76
2022/11/24 03:11:38;;;;;;;12.07;5.67;;;;;;;-141.28;100.00;51205.72;5113767;28;20445;-77
2022/11/24 03:14:05;;;;;;;7.73;3.83;;;;;;;-141.28;100.00;51176.28;5113860;28;20457;-75
2022/11/24 03:16:33;;;;;;;8.93;4.50;;;;;;;-141.28;100.00;51158.59;5113576;28;20956;-76
2022/11/24 03:19:02;;;;;;;7.00;3.50;;;;;;;-141.28;100.00;51123.28;5113847;28;20502;-76
2022/11/24 03:21:29;;;;;;;6.17;3.83;;;;;;;-141.28;100.00;51009.41;5112979;28;20476;-80
2022/11/24 03:23:56;;;;;;;11.03;5.27;;;;;;;-141.28;100.00;51170.38;5113914;28;20437;-76
2022/11/24 03:26:25;;;;;;;10.17;4.47;;;;;;;-141.28;100.00;51213.56;5112469;28;20456;-76
2022/11/24 03:28:54;;;;;;;9.73;4.93;;;;;;;-141.28;100.00;51213.56;5107484;28;20449;-78
2022/11/24 03:31:21;;;;;;;12.70;5.83;;;;;;;-141.28;100.00;51245.00;5096837;28;20541;-76
2022/11/24 03:33:49;;;;;;;12.90;5.30;;;;;;;-141.28;100.00;51197.88;5110814;28;20552;-75
2022/11/24 03:36:17;;;;;;;15.87;5.30;;;;;;;-141.28;100.00;51248.91;5113246;28;20451;-76
2022/11/24 03:38:44;;;;;;;11.83;5.90;;;;;;;-141.28;100.00;51119.34;5113488;28;20453;-77
2022/11/24 03:41:11;;;;;;;16.40;6.40;;;;;;;-141.28;100.00;51199.84;5113377;28;20484;-79
2022/11/24 03:43:38;;;;;;;13.20;7.27;;;;;;;-141.28;100.00;51280.34;5112970;28;20453;-76
2022/11/24 03:46:05;;;;;;;14.43;6.73;;;;;;;-141.28;100.00;51327.44;5113053;28;20453;-78
2022/11/24 03:48:32;;;;;;;21.10;8.83;;;;;;;-141.28;100.00;51331.38;5113157;28;20509;-78
2022/11/24 03:51:00;;;;;;;13.67;7.00;;;;;;;-141.28;100.00;51354.94;5112741;28;20448;-77
2022/11/24 03:53:31;;;;;;;14.03;7.53;;;;;;;-141.28;100.00;51370.66;5112855;28;20505;-77
2022/11/24 03:55:58;;;;;;;15.40;7.13;;;;;;;-141.28;100.00;51362.78;5113255;28;20503;-76
2022/11/24 03:58:25;;;;;;;13.60;7.37;;;;;;;-141.28;100.00;51374.56;5112678;28;20444;-77
2022/11/24 04:00:53;;;;;;;14.63;7.20;;;;;;;-141.28;100.00;51409.91;5111624;28;20484;-75
2022/11/24 04:03:20;;;;;;;12.13;7.27;;;;;;;-141.28;100.00;51433.47;5112426;28;20474;-77
2022/11/24 04:05:48;;;;;;;13.63;7.03;;;;;;;-141.28;100.00;51343.16;5113016;28;20436;-76
2022/11/24 04:08:15;;;;;;;16.23;7.67;;;;;;;-141.28;100.00;51358.88;5112776;28;20935;-76
2022/11/24 04:10:44;;;;;;;19.27;7.03;;;;;;;-141.28;100.00;51284.25;5112438;28;20950;-78
2022/11/24 04:13:11;;;;;;;12.63;6.60;;;;;;;-141.28;100.00;51351.00;5112849;28;20506;-75
2022/11/24 04:15:39;;;;;;;19.30;7.57;;;;;;;-141.28;100.00;51272.47;5112652;28;20547;-77
2022/11/24 04:18:07;;;;;;;18.73;7.43;;;;;;;-141.28;100.00;51260.69;5112695;28;20500;-75
2022/11/24 04:20:35;;;;;;;17.93;8.00;;;;;;;-141.28;100.00;51311.75;5112236;28;20998;-77
2022/11/24 04:23:02;;;;;;;28.47;9.37;;;;;;;-141.28;100.00;51296.03;5112590;28;20525;-76
2022/11/24 04:25:30;;;;;;;20.63;7.90;;;;;;;-141.28;100.00;51327.44;5112440;28;21019;-76
2022/11/24 04:27:58;;;;;;;15.23;7.57;;;;;;;-141.28;100.00;51317.63;5112853;28;20452;-77
2022/11/24 04:30:27;;;;;;;18.83;9.93;;;;;;;-141.28;100.00;51311.75;5111497;28;20448;-76
2022/11/24 04:32:53;;;;;;;15.80;7.93;;;;;;;-141.28;100.00;51313.72;5112807;28;20844;-78
2022/11/24 04:35:21;;;;;;;17.87;8.30;;;;;;;-141.28;100.00;51276.41;5112128;28;20984;-74
2022/11/24 04:37:48;;;;;;;16.80;7.90;;;;;;;-141.28;100.00;51254.81;5112388;28;20452;-79
2022/11/24 04:40:15;;;;;;;17.43;7.23;;;;;;;-141.28;100.00;51256.78;5112084;28;20437;-75
2022/11/24 04:42:42;;;;;;;15.33;7.00;;;;;;;-141.28;100.00;51303.88;5112149;28;20890;-75
2022/11/24 04:45:11;;;;;;;19.97;8.20;;;;;;;-141.28;100.00;51174.31;5111896;28;20461;-74
2022/11/24 04:47:38;;;;;;;12.73;6.90;;;;;;;-141.28;100.00;51296.03;5112147;28;20984;-75
2022/11/24 04:50:07;;;;;;;16.60;7.53;;;;;;;-141.28;100.00;51274.44;5112666;28;20505;-74
2022/11/24 04:52:34;;;;;;;14.00;5.67;;;;;;;-141.28;100.00;51231.25;5112635;28;20528;-76
2022/11/24 04:55:01;;;;;;;13.17;6.43;;;;;;;-141.28;100.00;51262.66;5111882;28;20471;-75
2022/11/24 04:57:28;;;;;;;16.47;6.83;;;;;;;-141.28;100.00;51294.06;5111856;28;20463;-77
2022/11/24 04:59:56;;;;;;;17.73;7.47;;;;;;;-141.28;100.00;51284.25;5110413;28;20444;-77
2022/11/24 05:02:24;;;;;;;11.20;5.93;;;;;;;-141.28;100.00;51294.06;5111709;28;20484;-76
2022/11/24 05:04:51;;;;;;;15.77;7.30;;;;;;;-141.28;100.00;51119.34;5111803;28;20441;-78
2022/11/24 05:07:19;;;;;;;15.77;6.57;;;;;;;-141.28;100.00;51138.97;5113060;28;20859;-74
2022/11/24 05:12:30;;;;;;;13.30;6.63;;;;;;;-141.28;100.00;51076.16;5111958;28;20946;-79
2022/11/24 05:14:58;;;;;;;18.67;6.93;;;;;;;-141.28;100.00;51099.72;5115703;28;20459;-77
2022/11/24 05:17:29;;;;;;;10.63;5.70;;;;;;;-141.28;100.00;51080.06;5112791;28;20930;-77
2022/11/24 05:19:56;;;;;;;19.80;6.50;;;;;;;-141.28;100.00;51111.50;5113014;28;20469;-77
2022/11/24 05:22:23;;;;;;;13.13;6.90;;;;;;;-141.28;100.00;51084.00;5097536;28;20577;-79
2022/11/24 05:24:50;;;;;;;18.20;7.60;;;;;;;-141.28;100.00;51056.53;5111955;28;20452;-75
2022/11/24 05:27:17;;;;;;;15.13;8.90;;;;;;;-141.28;100.00;51068.28;5111547;28;20452;-77
2022/11/24 05:29:44;;;;;;;13.97;6.63;;;;;;;-141.28;100.00;51040.81;5111766;28;20452;-77
2022/11/24 05:32:12;;;;;;;16.10;7.07;;;;;;;-141.28;100.00;51013.31;5111463;28;20470;-78
2022/11/24 05:34:40;;;;;;;13.70;6.00;;;;;;;-141.28;100.00;50989.78;5111336;28;20448;-77
2022/11/24 05:37:07;;;;;;;16.83;5.63;;;;;;;-141.28;100.00;51003.50;5111168;28;20951;-77
2022/11/24 05:39:35;;;;;;;15.37;5.83;;;;;;;-141.28;100.00;51001.56;5111574;28;20440;-75
2022/11/24 05:42:39;;;;;;;7.57;4.30;;;;;;;-141.28;100.00;50989.78;5111214;28;20510;-75
2022/11/24 05:44:50;;;;;;;17.63;4.80;;;;;;;-141.28;100.00;50844.50;5115261;28;20514;-74
2022/11/24 05:47:17;;;;;;;16.17;5.13;;;;;;;-141.28;100.00;50817.03;5115452;28;20440;-75
2022/11/24 05:49:45;;;;;;;9.73;4.37;;;;;;;-141.28;100.00;50818.97;5115207;28;21031;-78
2022/11/24 05:52:13;;;;;;;32.53;13.20;;;;;;;-141.28;100.00;50828.78;5115144;28;20444;-78
2022/11/24 05:54:40;;;;;;;16.40;6.90;;;;;;;-141.28;100.00;50844.50;5119607;28;20448;-76
2022/11/24 05:57:07;;;;;;;5.60;3.70;;;;;;;-141.28;100.00;50836.66;5119102;28;20491;-79
2022/11/24 05:59:34;;;;;;;14.70;4.63;;;;;;;-141.28;100.00;50789.53;5100556;28;20501;-77
2022/11/24 06:02:02;;;;;;;9.40;4.90;;;;;;;-141.28;100.00;50789.53;5114837;28;20594;-78
2022/11/24 06:04:28;;;;;;;19.20;4.87;;;;;;;-141.28;100.00;50767.94;5114729;28;20853;-77
2022/11/24 06:06:57;;;;;;;12.20;5.03;;;;;;;-141.28;100.00;50746.34;5115285;28;20565;-75
2022/11/24 06:09:23;;;;;;;24.03;11.23;;;;;;;-141.28;100.00;50718.88;5115223;28;20518;-75
2022/11/24 06:11:50;;;;;;;42.27;26.93;;;;;;;-141.28;100.00;50648.19;5115447;28;20449;-74
2022/11/24 06:14:17;;;;;;;31.17;17.87;;;;;;;-141.28;100.00;50648.19;5115337;28;20460;-75
2022/11/24 06:16:44;;;;;;;28.53;12.37;;;;;;;-141.28;100.00;50656.06;5115201;28;20891;-78
2022/11/24 06:19:11;;;;;;;26.70;14.53;;;;;;;-141.28;100.00;50661.94;5111726;28;20445;-76
2022/11/24 06:21:38;;;;;;;23.10;11.93;;;;;;;-141.28;100.00;50616.78;5105217;28;23704;-78
2022/11/24 06:24:08;;;;;;;29.17;16.90;;;;;;;-141.28;100.00;50712.97;5115277;28;20460;-78
2022/11/24 06:26:36;;;;;;;35.77;17.53;;;;;;;-141.28;100.00;50689.41;5114766;28;20879;-76
2022/11/24 06:29:03;;;;;;;29.60;13.57;;;;;;;-141.28;100.00;50765.97;5114556;28;20457;-75
2022/11/24 06:31:30;;;;;;;30.93;13.33;;;;;;;-141.28;100.00;50793.47;5114834;28;20452;-77
2022/11/24 06:33:57;;;;;;;30.80;16.90;;;;;;;-141.28;100.00;50773.81;5114245;28;20513;-77
2022/11/24 06:36:24;;;;;;;43.00;23.60;;;;;;;-141.28;100.00;50801.31;5114538;28;20513;-75
2022/11/24 06:38:52;;;;;;;45.03;23.83;;;;;;;-141.28;100.00;50789.53;5114946;28;20784;-73
2022/11/24 06:41:20;;;;;;;35.93;18.17;;;;;;;-141.28;100.00;50762.06;5114480;28;20480;-75
2022/11/24 06:43:47;;;;;;;45.90;23.97;;;;;;;-141.28;100.00;50758.13;5114259;28;20513;-77
2022/11/24 06:46:14;;;;;;;45.97;25.47;;;;;;;-141.28;100.00;50726.72;5114288;28;20539;-74
2022/11/24 06:48:41;;;;;;;34.87;19.77;;;;;;;-141.28;100.00;50726.72;5114570;28;20797;-77
2022/11/24 06:51:11;;;;;;;34.53;15.20;;;;;;;-141.28;100.00;50736.53;5112810;28;20942;-75
2022/11/24 06:53:39;;;;;;;32.40;16.33;;;;;;;-141.28;100.00;50734.56;5104630;28;20539;-76
2022/11/24 06:56:08;;;;;;;30.47;16.17;;;;;;;-141.28;100.00;50605.00;5116380;28;20502;-75
2022/11/24 06:58:40;;;;;;;32.83;17.83;;;;;;;-141.28;100.00;50632.50;5115214;28;20505;-75
2022/11/24 07:01:07;;;;;;;43.77;20.47;;;;;;;-141.28;100.00;50648.19;5113333;28;20436;-75
2022/11/24 07:03:36;;;;;;;33.50;17.93;;;;;;;-141.28;100.00;50661.94;5114606;28;20448;-76
2022/11/24 07:06:03;;;;;;;33.13;15.80;;;;;;;-141.28;100.00;50628.56;5114893;28;20448;-75
2022/11/24 07:08:29;;;;;;;28.13;14.90;;;;;;;-141.28;100.00;50628.56;5113885;28;20453;-78
2022/11/24 07:10:56;;;;;;;36.37;15.80;;;;;;;-141.28;100.00;50640.34;5113405;28;20474;-78
2022/11/24 07:13:23;;;;;;;26.07;15.10;;;;;;;-141.28;100.00;50724.75;5113982;28;20954;-75
2022/11/24 07:15:52;;;;;;;29.47;15.83;;;;;;;-141.28;100.00;50813.09;5114279;28;20464;-76
2022/11/24 07:18:18;;;;;;;25.17;12.93;;;;;;;-141.28;100.00;50836.66;5113495;28;20479;-76
2022/11/24 07:20:47;;;;;;;21.40;11.90;;;;;;;-141.28;100.00;50848.44;5113580;28;20975;-77
2022/11/24 07:23:14;;;;;;;27.43;11.10;;;;;;;-141.28;100.00;50840.56;5113486;28;20624;-79
2022/11/24 07:25:41;;;;;;;22.07;12.97;;;;;;;-141.28;100.00;50836.66;5113441;28;20445;-74
2022/11/24 07:28:09;;;;;;;27.80;14.73;;;;;;;-141.28;100.00;50777.75;5113900;28;20445;-74
2022/11/24 07:30:36;;;;;;;30.97;16.77;;;;;;;-141.28;100.00;50785.59;5113261;28;20451;-77
2022/11/24 07:33:04;;;;;;;30.60;17.27;;;;;;;-141.28;100.00;50754.19;5113723;28;20441;-74
2022/11/24 07:35:33;;;;;;;33.93;17.30;;;;;;;-141.28;100.00;50742.41;5113750;28;20445;-76
2022/11/24 07:38:00;;;;;;;25.93;15.57;;;;;;;-141.28;100.00;50722.78;5113874;28;20486;-75
2022/11/24 07:40:27;;;;;;;35.33;16.33;;;;;;;-141.28;100.00;50711.00;5113034;28;20935;-75
2022/11/24 07:42:54;;;;;;;28.93;16.93;;;;;;;-141.28;100.00;50722.78;5113524;28;20561;-75
2022/11/24 07:45:21;;;;;;;27.87;15.40;;;;;;;-141.28;100.00;50707.09;5112705;28;20453;-76
2022/11/24 07:47:49;;;;;;;24.40;13.90;;;;;;;-141.28;100.00;50738.50;5113168;28;20475;-79
2022/11/24 07:50:17;;;;;;;21.70;12.47;;;;;;;-141.28;100.00;50693.34;5112489;28;20452;-79
2022/11/24 07:52:44;;;;;;;18.17;10.60;;;;;;;-141.28;100.00;50881.78;5113062;28;20889;-77
2022/11/24 07:55:11;;;;;;;22.40;10.33;;;;;;;-141.28;100.00;50999.59;5113198;28;20445;-77
2022/11/24 07:57:38;;;;;;;22.57;10.60;;;;;;;-141.28;100.00;51005.47;5113160;28;20453;-75
2022/11/24 08:00:06;;;;;;;20.27;9.90;;;;;;;-141.28;100.00;51009.41;5111840;28;20517;-74
2022/11/24 08:02:34;;;;;;;14.10;9.37;;;;;;;-141.28;100.00;50983.88;5112513;28;20521;-77
2022/11/24 08:05:01;;;;;;;13.47;9.30;;;;;;;-141.28;100.00;50964.25;5111808;28;20448;-78
2022/11/24 08:07:29;;;;;;;16.80;9.43;;;;;;;-141.28;100.00;50889.66;5112898;28;20448;-76
2022/11/24 08:09:56;;;;;;;16.70;9.80;;;;;;;-141.28;100.00;50972.09;5112720;28;20448;-77
2022/11/24 08:12:23;;;;;;;15.03;9.67;;;;;;;-141.28;100.00;50954.44;5111840;28;20490;-75
2022/11/24 08:14:50;;;;;;;15.80;10.20;;;;;;;-141.28;100.00;50942.66;5113814;28;20486;-75
2022/11/24 08:17:18;;;;;;;19.00;9.60;;;;;;;-141.28;100.00;50981.91;5099487;28;20522;-75
2022/11/24 08:19:45;;;;;;;12.63;9.17;;;;;;;-141.28;100.00;50958.38;5112643;28;20445;-78
2022/11/24 08:22:12;;;;;;;17.53;9.53;;;;;;;-141.28;100.00;50712.97;5112253;28;20955;-74
2022/11/24 08:24:45;;;;;;;15.30;9.80;;;;;;;-141.28;100.00;50966.22;5110832;28;20445;-74
2022/11/24 08:27:12;;;;;;;18.40;9.07;;;;;;;-141.28;100.00;50925.00;5112723;28;20440;-78
2022/11/24 08:29:41;;;;;;;14.20;9.13;;;;;;;-141.28;100.00;50885.72;5112503;28;20594;-75
2022/11/24 08:32:08;;;;;;;18.03;9.87;;;;;;;-141.28;100.00;50777.75;5112578;28;20906;-75
2022/11/24 08:34:36;;;;;;;16.37;9.63;;;;;;;-141.28;100.00;50932.84;5113038;28;20444;-77
2022/11/24 08:37:03;;;;;;;12.67;8.20;;;;;;;-141.28;100.00;50905.34;5111876;28;20529;-75
2022/11/24 08:39:30;;;;;;;12.93;8.07;;;;;;;-141.28;100.00;50921.06;5112029;28;20436;-76
2022/11/24 08:41:59;;;;;;;13.93;8.20;;;;;;;-141.28;100.00;50925.00;5111664;28;20548;-74
2022/11/24 08:44:27;;;;;;;12.37;7.50;;;;;;;-141.28;100.00;50997.63;5111966;28;20544;-75
2022/11/24 08:46:54;;;;;;;13.37;8.03;;;;;;;-141.28;100.00;51027.06;5111869;28;20432;-75
2022/11/24 08:49:22;;;;;;;11.87;8.40;;;;;;;-141.28;100.00;51072.22;5112196;28;20975;-76
2022/11/24 08:51:50;;;;;;;15.70;7.83;;;;;;;-141.28;100.00;51135.03;5111993;28;20444;-79
2022/11/24 08:54:18;;;;;;;13.23;7.13;;;;;;;-141.28;100.00;51174.31;5109878;28;20444;-80
2022/11/24 08:56:46;;;;;;;10.43;6.50;;;;;;;-141.28;100.00;51170.38;5110220;28;20950;-74
2022/11/24 08:59:14;;;;;;;12.13;6.03;;;;;;;-141.28;100.00;51233.22;5111704;28;20517;-75
2022/11/24 09:01:42;;;;;;;10.57;5.87;;;;;;;-141.28;100.00;51221.44;5104117;28;20454;-78
2022/11/24 09:04:08;;;;;;;10.37;5.97;;;;;;;-141.28;100.00;51272.47;5104817;28;20448;-75
2022/11/24 09:06:36;;;;;;;11.37;5.47;;;;;;;-141.28;100.00;51107.56;5098393;28;20879;-78
2022/11/24 09:09:03;;;;;;;10.60;5.43;;;;;;;-141.28;100.00;51217.50;5097947;28;20456;-78
2022/11/24 09:11:33;;;;;;;6.63;4.53;;;;;;;-141.28;100.00;51290.16;5111316;28;20445;-76
2022/11/24 09:14:00;;;;;;;7.23;4.50;;;;;;;-141.28;100.00;51339.22;5118788;28;20453;-77
2022/11/24 09:16:29;;;;;;;5.97;4.30;;;;;;;-141.28;100.00;51402.06;5116404;28;20450;-78
2022/11/24 09:18:56;;;;;;;6.87;5.27;;;;;;;-141.28;100.00;51421.69;5111633;28;20517;-77
2022/11/24 09:21:23;;;;;;;5.37;4.10;;;;;;;-141.28;100.00;51429.53;5102897;28;20454;-78
2022/11/24 09:23:52;;;;;;;6.43;3.90;;;;;;;-141.28;100.00;51457.03;5107450;28;20572;-75
2022/11/24 09:26:21;;;;;;;6.97;4.13;;;;;;;-141.28;100.00;51443.28;5101823;28;20966;-76
2022/11/24 09:28:53;;;;;;;8.60;3.20;;;;;;;-141.28;100.00;51478.63;5108153;28;20443;-76
2022/11/24 09:31:22;;;;;;;3.57;2.60;;;;;;;-141.28;100.00;51335.31;5111866;28;20472;-78
2022/11/24 09:33:51;;;;;;;7.53;2.63;;;;;;;-141.28;100.00;51331.38;5111215;28;20470;-76
2022/11/24 09:36:18;;;;;;;3.53;2.80;;;;;;;-141.28;100.00;51284.25;5111280;28;20451;-77
2022/11/24 09:38:45;;;;;;;4.83;2.40;;;;;;;-141.28;100.00;51235.19;5105902;28;20502;-76
2022/11/24 09:41:35;;;;;;;5.87;2.40;;;;;;;-141.28;100.00;51178.25;5111457;28;20502;-74
2022/11/24 09:44:09;;;;;;;5.23;2.97;;;;;;;-141.28;100.00;51085.97;5111090;28;20571;-74
2022/11/24 09:46:43;;;;;;;7.60;2.70;;;;;;;-141.28;100.00;51080.06;5111385;28;20445;-78
2022/11/24 09:49:17;;;;;;;6.60;2.60;;;;;;;-141.28;100.00;51089.91;5111347;28;20452;-77
2022/11/24 09:51:46;;;;;;;5.23;2.37;;;;;;;-141.28;100.00;51060.44;5111709;28;20445;-74
2022/11/24 09:54:18;;;;;;;5.20;2.03;;;;;;;-141.28;100.00;51076.16;5097623;28;20531;-76
2022/11/24 09:56:47;;;;;;;3.40;2.10;;;;;;;-141.28;100.00;51060.44;5112317;28;20842;-78
2022/11/24 09:59:16;;;;;;;2.53;1.80;;;;;;;-141.28;100.00;51107.56;5113853;28;20502;-76
2022/11/24 10:01:47;;;;;;;2.40;1.80;;;;;;;-141.28;100.00;51105.59;5112842;28;20514;-76
2022/11/24 10:04:19;;;;;;;2.07;1.80;;;;;;;-141.28;100.00;51103.63;5115779;28;20471;-76
2022/11/24 10:06:57;;;;;;;2.30;1.77;;;;;;;-141.28;100.00;50970.13;5120414;28;20440;-73
2022/11/24 10:09:45;;;;;;;3.10;1.97;;;;;;;-141.28;100.00;50970.13;5122946;28;20444;-75
2022/11/24 10:12:42;;;;;;;3.10;2.43;;;;;;;-141.28;100.00;50944.63;5120407;28;20453;-72
2022/11/24 10:15:24;;;;;;;2.93;2.20;;;;;;;-141.28;100.00;50850.38;5122246;28;20495;-74
2022/11/24 10:18:26;;;;;;;3.83;2.13;;;;;;;-141.28;100.00;50903.41;5117874;28;20574;-74
2022/11/24 10:21:04;;;;;;;2.73;2.00;;;;;;;-141.28;100.00;50895.53;5120720;28;20448;-76
2022/11/24 10:23:55;;;;;;;3.60;2.20;;;;;;;-141.28;100.00;50870.03;5101548;28;20558;-76
2022/11/24 10:26:31;;;;;;;7.03;2.37;;;;;;;-141.28;100.00;50858.25;5103687;28;20475;-75
2022/11/24 10:29:00;;;;;;;2.63;1.90;;;;;;;-141.28;100.00;50848.44;5116717;28;20972;-76
2022/11/24 10:31:33;;;;;;;3.83;2.40;;;;;;;-141.28;100.00;50860.19;5116898;28;20955;-75
2022/11/24 10:34:09;;;;;;;5.70;2.50;;;;;;;-141.28;100.00;50828.78;5114916;28;20441;-76
2022/11/24 10:36:45;;;;;;;3.33;2.47;;;;;;;-141.28;100.00;50646.22;5114526;28;20505;-74
2022/11/24 10:39:20;;;;;;;3.27;2.50;;;;;;;-141.28;100.00;50820.94;5114827;28;20447;-77
2022/11/24 10:41:52;;;;;;;5.57;2.60;;;;;;;-141.28;100.00;50795.41;5117553;28;20453;-76
2022/11/24 10:44:21;;;;;;;5.60;2.77;;;;;;;-141.28;100.00;50716.91;5118853;28;20578;-75
2022/11/24 10:46:48;;;;;;;3.50;2.67;;;;;;;-141.28;100.00;50642.31;5119493;28;20448;-76
2022/11/24 10:49:20;;;;;;;3.30;2.57;;;;;;;-141.28;100.00;50605.00;5119297;28;20445;-76
2022/11/24 10:52:00;;;;;;;2.73;2.43;;;;;;;-141.28;100.00;50577.53;5115435;28;20457;-75
2022/11/24 10:54:28;;;;;;;4.30;2.90;;;;;;;-141.28;100.00;50534.34;5115579;28;20440;-75
2022/11/24 10:56:56;;;;;;;3.70;2.87;;;;;;;-141.28;100.00;50518.66;5114800;28;20441;-75
2022/11/24 10:59:38;;;;;;;4.80;2.80;;;;;;;-141.28;100.00;50514.72;5113575;28;20472;-77
2022/11/24 11:02:29;;;;;;;4.83;2.93;;;;;;;-141.28;100.00;50508.81;5104451;28;20856;-76
2022/11/24 11:04:56;;;;;;;3.60;3.10;;;;;;;-141.28;100.00;50420.50;5114045;28;20469;-80
2022/11/24 11:07:26;;;;;;;5.23;3.23;;;;;;;-141.28;100.00;50514.72;5113924;28;20453;-75
2022/11/24 11:10:19;;;;;;;5.03;3.50;;;;;;;-141.28;100.00;50597.16;5101600;28;20966;-77
2022/11/24 11:12:48;;;;;;;5.00;3.50;;;;;;;-141.28;100.00;50569.69;5114216;28;20436;-80
2022/11/24 11:15:23;;;;;;;4.77;3.10;;;;;;;-141.28;100.00;50608.94;5114261;28;20498;-76